Time;durP1;ratioP1;P1;durP2;ratioP2;P2;SDS_P1;SDS_P2;PMS_P1;PMS_P2;Temp;Humidity;BMP_temperature;BMP_pressure;BME280_temperature;BME280_humidity;BME280_pressure;Samples;Min_cycle;Max_cycle;Signal;HPM_P1;HPM_P2
2022/05/06 00:02:05;;;;;;;7.60;4.57;;;;;;;21.22;38.53;102549.22;5024629;28;20055;-74
2022/05/06 00:04:31;;;;;;;5.22;4.07;;;;;;;21.21;38.58;102543.09;5033660;28;20491;-74
2022/05/06 00:06:56;;;;;;;5.38;4.40;;;;;;;21.21;38.67;102544.91;5046891;28;20082;-74
2022/05/06 00:09:23;;;;;;;5.45;3.92;;;;;;;21.19;38.68;102550.34;5045869;28;20139;-75
2022/05/06 00:11:48;;;;;;;5.32;4.43;;;;;;;21.15;38.60;102541.00;5046129;28;20037;-75
2022/05/06 00:14:14;;;;;;;6.20;4.20;;;;;;;21.16;38.54;102542.66;5026107;28;20037;-75
2022/05/06 00:16:40;;;;;;;5.82;4.30;;;;;;;21.13;38.89;102551.75;5050561;28;20611;-74
2022/05/06 00:19:05;;;;;;;5.88;4.18;;;;;;;21.15;38.69;102548.94;5048756;28;20052;-75
2022/05/06 00:21:31;;;;;;;5.32;3.92;;;;;;;21.02;38.80;102529.94;5040435;28;20045;-75
2022/05/06 00:23:56;;;;;;;6.15;3.80;;;;;;;21.01;38.81;102537.06;5045914;28;20403;-75
2022/05/06 00:26:22;;;;;;;5.47;4.70;;;;;;;21.06;38.67;102555.97;5049911;28;20101;-75
2022/05/06 00:28:48;;;;;;;5.07;4.03;;;;;;;21.08;38.69;102561.97;5021177;28;20044;-74
2022/05/06 00:31:13;;;;;;;7.55;4.18;;;;;;;21.09;38.63;102558.31;5007388;28;20029;-74
2022/05/06 00:33:39;;;;;;;6.90;4.07;;;;;;;21.07;38.74;102555.00;5036716;28;20033;-75
2022/05/06 00:36:06;;;;;;;5.25;4.03;;;;;;;21.07;38.84;102557.66;5038595;28;20083;-74
2022/05/06 00:38:32;;;;;;;5.45;4.10;;;;;;;21.04;38.73;102551.81;5050595;28;20088;-74
2022/05/06 00:40:57;;;;;;;6.13;4.40;;;;;;;21.02;38.91;102553.78;5049058;28;20033;-74
2022/05/06 00:43:25;;;;;;;6.72;4.75;;;;;;;21.00;38.75;102553.88;5004625;28;20126;-74
2022/05/06 00:45:55;;;;;;;5.88;4.25;;;;;;;21.00;38.95;102553.88;5022547;28;20531;-75
2022/05/06 00:48:24;;;;;;;4.65;3.67;;;;;;;21.01;38.86;102554.75;5021583;28;20045;-75
2022/05/06 00:50:51;;;;;;;5.63;4.18;;;;;;;21.02;38.84;102551.13;5040825;28;20028;-75
2022/05/06 00:53:17;;;;;;;5.63;4.05;;;;;;;20.86;38.89;102535.03;5036000;28;20041;-74
2022/05/06 00:55:43;;;;;;;6.00;4.28;;;;;;;20.95;38.87;102556.16;5019455;28;20056;-75
2022/05/06 00:58:09;;;;;;;7.45;4.38;;;;;;;20.96;38.95;102551.69;5042323;28;20044;-75
2022/05/06 01:00:35;;;;;;;6.88;4.47;;;;;;;20.90;39.04;102544.34;5017214;28;20036;-75
2022/05/06 01:03:01;;;;;;;6.95;4.75;;;;;;;20.92;39.02;102552.97;5042185;28;20748;-76
2022/05/06 01:05:27;;;;;;;5.43;4.32;;;;;;;20.90;39.21;102555.75;5026142;28;20048;-74
2022/05/06 01:07:53;;;;;;;5.43;4.20;;;;;;;20.86;39.20;102548.25;5039021;28;20554;-75
2022/05/06 01:10:21;;;;;;;6.45;4.68;;;;;;;20.87;39.19;102549.94;5053768;28;20029;-74
2022/05/06 01:12:48;;;;;;;6.22;4.25;;;;;;;20.84;39.15;102552.88;5020625;28;20037;-74
2022/05/06 01:15:23;;;;;;;6.22;4.25;;;;;;;20.86;39.09;102550.91;5008889;28;20041;-75
2022/05/06 01:17:55;;;;;;;6.60;4.60;;;;;;;20.85;39.01;102550.06;5040574;28;20033;-75
2022/05/06 01:20:22;;;;;;;6.38;4.68;;;;;;;20.85;39.09;102546.59;5018166;28;20155;-74
2022/05/06 01:22:52;;;;;;;5.13;4.18;;;;;;;20.78;39.09;102544.50;5044347;28;20124;-75
2022/05/06 01:25:18;;;;;;;5.75;4.32;;;;;;;20.80;39.15;102541.72;5037582;28;20040;-75
2022/05/06 01:27:52;;;;;;;5.53;4.15;;;;;;;20.82;39.23;102542.41;5033908;28;20092;-73
2022/05/06 01:30:43;;;;;;;5.80;4.13;;;;;;;20.80;39.17;102537.25;5022797;28;20402;-75
2022/05/06 01:33:14;;;;;;;5.68;4.50;;;;;;;20.77;39.35;102542.84;5022953;28;20037;-75
2022/05/06 01:35:46;;;;;;;5.80;4.30;;;;;;;20.77;39.19;102539.34;5042002;28;20053;-74
2022/05/06 01:38:21;;;;;;;5.97;4.35;;;;;;;20.75;39.28;102542.16;5026182;28;20043;-75
2022/05/06 01:40:52;;;;;;;6.47;4.40;;;;;;;20.72;39.27;102550.38;5051845;28;20090;-75
2022/05/06 01:43:22;;;;;;;6.70;4.53;;;;;;;20.70;39.29;102540.94;5020928;28;20405;-75
2022/05/06 01:45:50;;;;;;;6.47;4.82;;;;;;;20.75;39.20;102547.44;5048225;28;20061;-74
2022/05/06 01:48:19;;;;;;;6.50;4.43;;;;;;;20.70;39.26;102549.69;5016761;28;20721;-74
2022/05/06 01:50:49;;;;;;;5.93;4.43;;;;;;;20.75;39.18;102559.84;5036772;28;20400;-75
2022/05/06 01:53:19;;;;;;;5.18;3.95;;;;;;;20.71;39.32;102551.38;5020073;28;20032;-74
2022/05/06 01:55:47;;;;;;;7.70;4.35;;;;;;;20.70;39.33;102549.69;5045641;28;20079;-75
2022/05/06 01:58:15;;;;;;;5.35;3.90;;;;;;;20.72;39.25;102552.19;5037441;28;20794;-75
2022/05/06 02:00:49;;;;;;;5.68;4.30;;;;;;;20.72;39.33;102549.56;5025332;28;20045;-75
2022/05/06 02:06:09;;;;;;;6.28;4.70;;;;;;;20.70;39.42;102548.88;5037586;28;20044;-74
2022/05/06 02:08:38;;;;;;;5.40;4.32;;;;;;;20.70;39.42;102549.69;5043108;28;20059;-75
2022/05/06 02:11:06;;;;;;;5.35;3.95;;;;;;;20.63;39.34;102542.47;5027868;28;20032;-75
2022/05/06 02:13:34;;;;;;;5.47;4.38;;;;;;;20.67;39.42;102547.34;5015839;28;20041;-75
2022/05/06 02:16:19;;;;;;;5.93;3.97;;;;;;;20.66;39.41;102545.69;5033742;28;20142;-75
2022/05/06 02:19:14;;;;;;;6.55;4.53;;;;;;;20.66;39.59;102553.63;5014634;28;20072;-74
2022/05/06 02:22:02;;;;;;;5.45;4.30;;;;;;;20.59;39.55;102541.09;5028198;28;20049;-75
2022/05/06 02:24:47;;;;;;;6.07;4.50;;;;;;;20.63;39.42;102545.94;5032824;28;20110;-75
2022/05/06 02:27:29;;;;;;;6.25;4.15;;;;;;;20.65;39.36;102556.41;5022085;28;20101;-74
2022/05/06 02:35:28;;;;;;;6.22;4.28;;;;;;;20.66;39.38;102550.97;5019490;28;20049;-75
2022/05/06 02:37:56;;;;;;;6.03;4.38;;;;;;;20.64;39.51;102550.25;5025507;28;20482;-74
2022/05/06 02:40:25;;;;;;;5.53;4.28;;;;;;;20.63;39.60;102542.47;5031547;28;20041;-74
2022/05/06 02:42:51;;;;;;;5.57;4.47;;;;;;;20.64;39.47;102550.25;5039753;28;20059;-74
2022/05/06 02:45:17;;;;;;;5.57;4.15;;;;;;;20.60;39.54;102545.41;5019857;28;20036;-75
2022/05/06 02:47:43;;;;;;;6.72;4.60;;;;;;;20.60;39.61;102538.28;5030774;28;20048;-74
2022/05/06 02:50:09;;;;;;;5.35;4.55;;;;;;;20.64;39.43;102542.31;5020292;28;20494;-75
2022/05/06 02:52:37;;;;;;;4.97;3.90;;;;;;;20.58;39.45;102539.41;5033645;28;20057;-74
2022/05/06 02:55:03;;;;;;;6.07;4.13;;;;;;;20.54;39.54;102527.44;5014842;28;20066;-75
2022/05/06 02:57:31;;;;;;;7.25;4.20;;;;;;;20.58;39.53;102544.72;5027957;28;20057;-74
2022/05/06 02:59:56;;;;;;;6.15;4.45;;;;;;;20.61;39.53;102545.25;5036675;28;20794;-75
2022/05/06 03:02:25;;;;;;;7.07;4.85;;;;;;;20.55;39.54;102540.53;5024299;28;20676;-75
2022/05/06 03:04:51;;;;;;;7.10;4.30;;;;;;;20.62;39.58;102546.91;5023440;28;20558;-74
2022/05/06 03:07:19;;;;;;;9.68;4.70;;;;;;;20.56;39.64;102546.66;5022004;28;20053;-74
2022/05/06 03:09:48;;;;;;;5.85;4.32;;;;;;;20.52;39.66;102538.19;5026066;28;20045;-74
2022/05/06 03:12:18;;;;;;;6.35;4.35;;;;;;;20.56;39.67;102541.38;5031624;28;20598;-75
2022/05/06 03:15:03;;;;;;;5.82;4.50;;;;;;;20.54;39.68;102533.56;5021371;28;20075;-74
2022/05/06 03:17:40;;;;;;;5.75;4.20;;;;;;;20.58;39.62;102542.06;5039830;28;20128;-74
2022/05/06 03:20:08;;;;;;;6.25;4.35;;;;;;;20.59;39.69;102549.03;5022354;28;20095;-75
2022/05/06 03:22:39;;;;;;;6.05;4.25;;;;;;;20.58;39.61;102542.06;5019593;28;20044;-74
2022/05/06 03:25:05;;;;;;;5.68;4.45;;;;;;;20.58;39.48;102542.06;5037191;28;20036;-75
2022/05/06 03:30:14;;;;;;;5.82;4.35;;;;;;;20.51;39.78;102542.66;5041130;28;20151;-75
2022/05/06 03:32:42;;;;;;;5.28;4.15;;;;;;;20.51;39.66;102534.69;5020103;28;20064;-74
2022/05/06 03:35:08;;;;;;;6.03;4.40;;;;;;;20.57;39.68;102535.94;5051975;28;20117;-74
2022/05/06 03:37:38;;;;;;;5.53;4.15;;;;;;;20.56;39.61;102536.06;5022133;28;20040;-75
2022/05/06 03:40:06;;;;;;;7.32;4.43;;;;;;;20.55;39.64;102535.25;5032539;28;20040;-74
2022/05/06 03:42:33;;;;;;;5.43;4.28;;;;;;;20.51;39.48;102531.22;5042329;28;20448;-74
2022/05/06 03:44:59;;;;;;;5.30;4.30;;;;;;;20.50;39.55;102535.69;5037477;28;20041;-75
2022/05/06 03:47:27;;;;;;;5.38;4.30;;;;;;;20.52;39.79;102535.53;5037325;28;20076;-74
2022/05/06 03:52:36;;;;;;;6.40;4.20;;;;;;;20.50;39.59;102532.19;5040763;28;20130;-74
2022/05/06 03:55:03;;;;;;;5.85;4.28;;;;;;;20.59;39.50;102541.09;5038732;28;20070;-74
2022/05/06 03:57:28;;;;;;;5.55;4.20;;;;;;;20.56;39.60;102544.84;5039028;28;20049;-74
2022/05/06 03:59:55;;;;;;;7.85;4.82;;;;;;;20.50;39.65;102537.50;5023108;28;20044;-74
2022/05/06 04:02:20;;;;;;;6.50;4.50;;;;;;;20.50;39.63;102534.84;5043495;28;20040;-74
2022/05/06 04:04:46;;;;;;;6.32;4.13;;;;;;;20.49;39.70;102528.72;5043263;28;20122;-75
2022/05/06 04:07:14;;;;;;;7.32;4.78;;;;;;;20.52;39.48;102536.38;5027580;28;20110;-74
2022/05/06 04:09:46;;;;;;;6.40;4.55;;;;;;;20.25;39.57;102499.19;5047888;28;20033;-75
2022/05/06 04:12:12;;;;;;;5.78;4.88;;;;;;;20.49;39.65;102538.47;5025501;28;20044;-75
2022/05/06 04:14:42;;;;;;;5.57;4.35;;;;;;;20.51;39.62;102540.00;5021111;28;20103;-75
2022/05/06 04:17:08;;;;;;;6.57;4.35;;;;;;;20.49;39.68;102546.41;5021875;28;20040;-75
2022/05/06 04:19:33;;;;;;;6.32;4.72;;;;;;;20.48;39.42;102542.09;5036275;28;20037;-74
2022/05/06 04:24:57;;;;;;;5.50;4.30;;;;;;;20.48;39.71;102548.22;5023348;28;20036;-75
2022/05/06 04:27:26;;;;;;;5.15;4.60;;;;;;;20.49;39.70;102547.25;5015365;28;20068;-75
2022/05/06 04:29:56;;;;;;;6.50;4.93;;;;;;;20.49;39.61;102551.72;5025163;28;20512;-75
2022/05/06 04:32:23;;;;;;;6.50;4.75;;;;;;;20.48;39.64;102558.81;5023695;28;20124;-75
2022/05/06 04:34:49;;;;;;;5.18;4.35;;;;;;;20.50;39.62;102551.56;5026692;28;20051;-75
2022/05/06 04:37:19;;;;;;;5.22;4.47;;;;;;;20.47;39.62;102548.38;5038287;28;20051;-75
2022/05/06 04:39:45;;;;;;;5.40;4.30;;;;;;;20.49;39.62;102541.97;5012656;28;20044;-76
2022/05/06 04:42:11;;;;;;;5.30;4.10;;;;;;;20.48;39.60;102537.66;5031508;28;20423;-75
2022/05/06 04:44:38;;;;;;;5.90;4.40;;;;;;;20.50;39.57;102538.31;5023373;28;20048;-75
2022/05/06 04:47:04;;;;;;;5.32;4.15;;;;;;;20.40;39.66;102528.69;5047813;28;20769;-75
2022/05/06 04:49:31;;;;;;;6.68;4.57;;;;;;;20.49;39.64;102547.25;5034381;28;20072;-75
2022/05/06 04:51:56;;;;;;;6.43;4.22;;;;;;;20.46;39.63;102551.97;5025584;28;20040;-75
2022/05/06 04:54:22;;;;;;;6.50;4.65;;;;;;;20.49;39.66;102547.25;5032306;28;20029;-75
2022/05/06 04:56:49;;;;;;;6.50;4.50;;;;;;;20.50;39.63;102550.72;5020364;28;20934;-75
2022/05/06 04:59:22;;;;;;;6.85;4.53;;;;;;;20.53;39.54;102555.72;5023890;28;20147;-75
2022/05/06 05:01:50;;;;;;;5.45;4.45;;;;;;;20.57;39.49;102550.97;5035723;28;20205;-75
2022/05/06 05:04:16;;;;;;;4.95;4.13;;;;;;;20.51;39.56;102555.03;5014579;28;20040;-75
2022/05/06 05:06:43;;;;;;;6.60;4.53;;;;;;;20.52;39.55;102567.28;5020573;28;20144;-75
2022/05/06 05:09:12;;;;;;;5.28;4.05;;;;;;;20.49;39.36;102563.13;5020345;28;20036;-75
2022/05/06 05:11:40;;;;;;;5.53;4.25;;;;;;;20.52;39.43;102567.28;5030108;28;20114;-75
2022/05/06 05:14:11;;;;;;;7.38;5.05;;;;;;;20.49;39.59;102572.88;5025440;28;20041;-75
2022/05/06 05:16:39;;;;;;;5.43;4.00;;;;;;;20.44;39.44;102568.00;5049759;28;20047;-75
2022/05/06 05:19:06;;;;;;;4.72;3.63;;;;;;;20.40;39.55;102561.28;5015940;28;20483;-75
2022/05/06 05:21:33;;;;;;;4.78;3.75;;;;;;;20.50;39.50;102579.84;5017984;28;20072;-76
2022/05/06 05:24:01;;;;;;;4.93;3.80;;;;;;;20.45;39.48;102574.94;5036852;28;20047;-75
2022/05/06 05:26:27;;;;;;;5.45;4.00;;;;;;;20.37;39.56;102563.38;5035375;28;20041;-75
2022/05/06 05:28:53;;;;;;;5.75;4.05;;;;;;;20.50;39.41;102578.03;5010145;28;20041;-75
2022/05/06 05:31:19;;;;;;;5.18;3.97;;;;;;;20.48;39.65;102576.50;5028998;28;20116;-75
2022/05/06 05:33:46;;;;;;;4.63;3.78;;;;;;;20.51;39.48;102579.69;5021582;28;20524;-75
2022/05/06 05:36:12;;;;;;;5.15;4.10;;;;;;;20.54;39.38;102580.38;5025687;28;20052;-75
2022/05/06 05:38:38;;;;;;;4.72;3.78;;;;;;;20.44;39.44;102569.78;5020218;28;20032;-75
2022/05/06 05:41:04;;;;;;;4.63;3.60;;;;;;;20.39;39.47;102570.19;5047106;28;20604;-75
2022/05/06 05:49:05;;;;;;;6.15;4.20;;;;;;;20.45;39.39;102585.53;5037018;28;20052;-75
2022/05/06 05:51:34;;;;;;;4.47;3.78;;;;;;;20.42;39.57;102575.25;5022683;28;20033;-75
2022/05/06 05:54:01;;;;;;;4.53;3.58;;;;;;;20.54;39.39;102567.16;5020261;28;20041;-75
2022/05/06 05:56:30;;;;;;;4.53;3.75;;;;;;;20.50;39.43;102570.09;5016915;28;20045;-74
2022/05/06 05:58:57;;;;;;;4.55;3.40;;;;;;;20.54;39.35;102567.16;5021454;28;20477;-75
2022/05/06 06:01:23;;;;;;;4.63;3.92;;;;;;;20.59;39.21;102578.97;5038775;28;20035;-75
2022/05/06 06:03:50;;;;;;;4.38;3.83;;;;;;;20.57;39.29;102572.16;5025258;28;20036;-75
2022/05/06 06:06:16;;;;;;;4.63;3.55;;;;;;;20.60;39.29;102575.34;5019145;28;20040;-75
2022/05/06 06:08:45;;;;;;;5.27;3.90;;;;;;;20.62;39.26;102578.69;5019273;28;20036;-75
2022/05/06 06:11:10;;;;;;;4.38;3.67;;;;;;;20.64;39.15;102586.47;5021363;28;20537;-75
2022/05/06 06:13:40;;;;;;;4.43;3.65;;;;;;;20.50;39.07;102561.31;5042777;28;20505;-75
2022/05/06 06:16:09;;;;;;;4.73;3.67;;;;;;;20.64;39.17;102581.19;5024646;28;20045;-75
2022/05/06 06:18:34;;;;;;;4.45;3.65;;;;;;;20.60;39.26;102572.69;5038819;28;21162;-75
2022/05/06 06:21:01;;;;;;;4.80;3.88;;;;;;;20.63;39.29;102577.69;5034730;28;20385;-75
2022/05/06 06:23:30;;;;;;;4.70;3.90;;;;;;;20.66;39.12;102585.38;5021425;28;20142;-75
2022/05/06 06:25:57;;;;;;;5.20;4.10;;;;;;;20.80;38.80;102573.47;5022623;28;20131;-74
2022/05/06 06:28:23;;;;;;;4.85;3.55;;;;;;;21.01;38.54;102576.78;5030951;28;20510;-75
2022/05/06 06:30:49;;;;;;;4.28;3.40;;;;;;;20.90;38.78;102569.00;5027086;28;20071;-73
2022/05/06 06:33:16;;;;;;;5.07;3.92;;;;;;;21.56;38.30;102574.16;5017617;28;20040;-73
2022/05/06 06:35:42;;;;;;;4.40;3.55;;;;;;;21.82;37.63;102584.03;5015374;28;20040;-73
2022/05/06 06:38:08;;;;;;;5.05;3.90;;;;;;;21.89;37.46;102583.25;5016149;28;20045;-73
2022/05/06 06:40:38;;;;;;;4.82;3.67;;;;;;;21.93;37.32;102575.88;5017468;28;20071;-73
2022/05/06 06:43:06;;;;;;;4.70;3.30;;;;;;;21.83;37.71;102577.72;5044220;28;20040;-73
2022/05/06 06:45:51;;;;;;;4.47;3.63;;;;;;;21.68;37.84;102583.56;5039850;28;20122;-73
2022/05/06 06:48:25;;;;;;;4.55;3.80;;;;;;;21.65;37.95;102583.84;5035156;28;20056;-73
2022/05/06 06:51:20;;;;;;;5.20;3.70;;;;;;;21.62;38.10;102594.75;5021530;28;20029;-74
2022/05/06 06:53:54;;;;;;;4.40;3.88;;;;;;;21.61;38.16;102592.25;5024750;28;20131;-74
2022/05/06 06:56:21;;;;;;;5.20;3.83;;;;;;;21.68;37.91;102599.47;5038703;28;20037;-74
2022/05/06 06:58:47;;;;;;;4.22;3.60;;;;;;;21.76;37.96;102597.91;5031157;28;20869;-74
2022/05/06 07:01:12;;;;;;;5.07;3.90;;;;;;;21.72;37.96;102605.28;5040624;28;20037;-74
2022/05/06 07:03:38;;;;;;;4.30;3.65;;;;;;;21.78;37.93;102603.88;5034552;28;20041;-74
2022/05/06 07:14:16;;;;;;;4.75;3.67;;;;;;;21.72;38.07;102615.91;5041369;28;20047;-74
2022/05/06 07:16:41;;;;;;;5.00;3.83;;;;;;;21.79;37.82;102613.50;5035154;28;20049;-74
2022/05/06 07:19:07;;;;;;;4.28;3.60;;;;;;;21.68;38.06;102601.28;5033828;28;20041;-74
2022/05/06 07:21:33;;;;;;;4.05;3.53;;;;;;;21.73;37.71;102611.47;5033975;28;20041;-74
2022/05/06 07:23:58;;;;;;;4.72;3.75;;;;;;;21.69;37.94;102606.44;5039576;28;20037;-74
2022/05/06 07:26:24;;;;;;;4.30;3.33;;;;;;;21.71;37.61;102603.63;5036266;28;20028;-74
2022/05/06 07:28:50;;;;;;;4.13;3.45;;;;;;;21.69;37.77;102603.78;5038745;28;20044;-74
2022/05/06 07:31:15;;;;;;;4.95;3.50;;;;;;;21.70;37.84;102608.09;5034337;28;20040;-73
2022/05/06 07:33:41;;;;;;;4.68;3.60;;;;;;;21.68;38.09;102615.38;5039133;28;20048;-74
2022/05/06 07:36:06;;;;;;;4.38;3.33;;;;;;;21.65;38.16;102609.53;5037252;28;20041;-74
2022/05/06 07:38:32;;;;;;;5.07;3.72;;;;;;;21.63;38.15;102617.63;5038227;28;20044;-74
2022/05/06 07:40:59;;;;;;;5.55;4.25;;;;;;;21.58;38.20;102609.31;5037255;28;20700;-74
2022/05/06 07:43:25;;;;;;;5.32;3.83;;;;;;;21.58;38.30;102609.31;5048279;28;20036;-74
2022/05/06 07:45:51;;;;;;;5.25;3.70;;;;;;;21.60;38.05;102612.63;5043676;28;20025;-74
2022/05/06 07:48:18;;;;;;;4.32;3.65;;;;;;;21.54;38.22;102601.78;5025525;28;20057;-74
2022/05/06 07:50:44;;;;;;;4.95;3.90;;;;;;;21.54;38.14;102601.78;5043913;28;20128;-75
2022/05/06 07:53:14;;;;;;;5.25;3.95;;;;;;;21.61;38.20;102614.31;5035783;28;20122;-74
2022/05/06 07:55:40;;;;;;;4.45;3.55;;;;;;;21.60;38.27;102610.00;5037529;28;20554;-76
2022/05/06 07:58:05;;;;;;;5.07;3.80;;;;;;;21.66;38.19;102613.84;5041223;28;20043;-74
2022/05/06 08:00:32;;;;;;;4.50;3.83;;;;;;;21.63;37.94;102615.00;5042986;28;20044;-72
2022/05/06 08:05:44;;;;;;;6.05;4.10;;;;;;;21.59;38.30;102615.44;5040860;28;20391;-74
2022/05/06 08:08:09;;;;;;;4.82;3.85;;;;;;;21.66;38.18;102616.50;5043283;28;20040;-74
2022/05/06 08:10:35;;;;;;;5.78;3.95;;;;;;;21.64;38.42;102616.66;5047224;28;20391;-73
2022/05/06 08:13:01;;;;;;;4.72;3.80;;;;;;;21.66;38.27;102605.91;5020930;28;21263;-72
2022/05/06 08:15:27;;;;;;;5.68;3.80;;;;;;;21.65;38.39;102610.38;5050671;28;20119;-72
2022/05/06 08:17:53;;;;;;;4.97;3.80;;;;;;;21.58;38.34;102609.31;5044944;28;20106;-72
2022/05/06 08:20:19;;;;;;;6.30;3.88;;;;;;;21.59;38.55;102596.88;5034395;28;20041;-71
2022/05/06 08:22:44;;;;;;;4.80;3.72;;;;;;;21.55;38.40;102604.31;5039168;28;20491;-72
2022/05/06 08:25:11;;;;;;;5.15;3.75;;;;;;;21.62;38.54;102605.38;5042663;28;20039;-72
2022/05/06 08:27:37;;;;;;;5.80;3.97;;;;;;;21.62;38.46;102596.59;5042721;28;20790;-72
2022/05/06 08:30:08;;;;;;;4.70;3.80;;;;;;;21.68;38.23;102602.09;5046773;28;20459;-72
2022/05/06 08:32:33;;;;;;;4.43;3.80;;;;;;;21.69;38.32;102608.25;5031998;28;20044;-74
2022/05/06 08:34:59;;;;;;;4.03;3.45;;;;;;;21.68;38.56;102603.94;5028739;28;20044;-74
2022/05/06 08:37:25;;;;;;;5.28;3.65;;;;;;;21.63;38.40;102604.38;5045873;28;20040;-75
2022/05/06 08:39:51;;;;;;;6.30;4.03;;;;;;;21.70;38.32;102601.97;5041971;28;20047;-74
2022/05/06 08:42:21;;;;;;;7.68;3.97;;;;;;;21.65;38.52;102590.97;5043459;28;20040;-73
2022/05/06 08:53:03;;;;;;;6.03;4.07;;;;;;;21.74;38.48;102598.06;5043960;28;20056;-74
2022/05/06 08:55:28;;;;;;;8.10;4.30;;;;;;;21.78;38.75;102596.75;5043917;28;20040;-74
2022/05/06 08:57:54;;;;;;;4.40;3.67;;;;;;;21.75;38.55;102598.88;5042425;28;20037;-74
2022/05/06 09:00:24;;;;;;;4.70;3.55;;;;;;;21.80;38.67;102597.44;5043912;28;20156;-74
2022/05/06 09:02:50;;;;;;;5.55;4.00;;;;;;;21.66;38.69;102584.69;5035514;28;20583;-73
2022/05/06 09:05:20;;;;;;;6.25;3.78;;;;;;;21.73;38.57;102592.91;5043770;28;20041;-74
2022/05/06 09:07:57;;;;;;;5.32;3.63;;;;;;;21.70;38.58;102591.34;5042339;28;20641;-74
2022/05/06 09:10:24;;;;;;;4.28;3.40;;;;;;;21.75;38.28;102593.56;5044474;28;20189;-74
2022/05/06 09:12:53;;;;;;;5.28;3.70;;;;;;;21.75;38.72;102591.75;5036940;28;20128;-74
2022/05/06 09:18:06;;;;;;;5.22;4.00;;;;;;;21.76;38.69;102582.81;5038742;28;20045;-74
2022/05/06 09:20:33;;;;;;;4.55;3.85;;;;;;;21.68;38.65;102574.75;5044643;28;20502;-74
2022/05/06 09:23:17;;;;;;;4.50;3.65;;;;;;;21.77;38.64;102581.84;5038583;28;20064;-74
2022/05/06 09:25:46;;;;;;;5.60;4.00;;;;;;;21.79;38.39;102569.25;5043550;28;20036;-76
2022/05/06 09:28:26;;;;;;;5.82;4.00;;;;;;;21.97;38.15;102580.69;5037779;28;20036;-76
2022/05/06 09:31:11;;;;;;;6.20;3.92;;;;;;;21.99;38.08;102567.28;5023998;28;20037;-73
2022/05/06 09:33:42;;;;;;;5.30;3.97;;;;;;;22.14;38.33;102581.72;5040425;28;20044;-74
2022/05/06 09:36:25;;;;;;;5.28;3.65;;;;;;;22.20;38.22;102585.56;5042473;28;20036;-74
2022/05/06 09:39:02;;;;;;;4.05;3.38;;;;;;;22.17;38.06;102581.41;5037161;28;20202;-74
2022/05/06 09:41:28;;;;;;;4.65;3.50;;;;;;;22.13;38.18;102576.56;5039180;28;20045;-73
2022/05/06 09:44:07;;;;;;;4.88;4.00;;;;;;;22.24;37.97;102586.91;5024150;28;20106;-74
2022/05/06 09:46:33;;;;;;;4.20;3.40;;;;;;;22.25;38.09;102588.59;5041820;28;20036;-73
2022/05/06 09:49:00;;;;;;;4.97;3.63;;;;;;;22.24;37.84;102584.25;5024537;28;20044;-72
2022/05/06 09:51:33;;;;;;;4.28;3.70;;;;;;;22.20;37.89;102581.09;5046434;28;20090;-72
2022/05/06 09:54:00;;;;;;;5.82;3.60;;;;;;;22.22;38.23;102576.47;5041342;28;20072;-73
2022/05/06 09:56:26;;;;;;;4.45;3.40;;;;;;;22.21;38.30;102584.59;5044312;28;20090;-73
2022/05/06 09:58:53;;;;;;;4.30;3.42;;;;;;;22.14;38.27;102584.38;5035409;28;20040;-73
2022/05/06 10:01:20;;;;;;;4.45;3.63;;;;;;;22.12;38.21;102570.44;5042739;28;20105;-73
2022/05/06 10:03:46;;;;;;;4.68;3.33;;;;;;;22.12;38.33;102575.72;5040564;28;20040;-72
2022/05/06 10:06:12;;;;;;;5.85;3.63;;;;;;;22.12;38.40;102580.22;5040753;28;20036;-72
2022/05/06 10:08:44;;;;;;;4.82;3.60;;;;;;;22.14;38.35;102571.09;5040381;28;20075;-74
2022/05/06 10:11:14;;;;;;;4.28;3.40;;;;;;;22.12;37.99;102572.25;5036645;28;20044;-74
2022/05/06 10:13:44;;;;;;;;;;;;;;;22.15;37.96;102579.91;5043271;28;20127;-74
2022/05/06 10:16:11;;;;;;;5.72;3.63;;;;;;;22.11;38.37;102566.09;5044319;28;19912;-74
2022/05/06 10:18:43;;;;;;;4.60;3.40;;;;;;;22.17;38.13;102572.63;5037638;28;20525;-72
2022/05/06 10:21:14;;;;;;;4.15;3.38;;;;;;;22.12;37.94;102573.06;5019361;28;20079;-72
2022/05/06 10:23:43;;;;;;;;;;;;;;;22.13;37.91;102568.59;5044081;28;20041;-73
2022/05/06 10:26:29;;;;;;;5.05;3.13;;;;;;;22.09;38.18;102562.78;5040521;28;19947;-73
2022/05/06 10:34:23;;;;;;;4.50;3.72;;;;;;;22.07;38.04;102553.28;5036739;28;20044;-73
2022/05/06 10:36:50;;;;;;;3.92;3.13;;;;;;;22.05;38.37;102544.63;5047394;28;20105;-73
2022/05/06 10:39:36;;;;;;;4.30;3.30;;;;;;;22.05;38.27;102545.47;5042318;28;20078;-73
2022/05/06 10:42:03;;;;;;;3.78;3.17;;;;;;;22.05;38.35;102548.13;5041024;28;20056;-73
2022/05/06 10:44:38;;;;;;;4.05;2.80;;;;;;;22.07;38.45;102543.50;5041689;28;20123;-74
2022/05/06 10:47:13;;;;;;;3.92;3.22;;;;;;;22.02;38.54;102535.97;5042668;28;20040;-72
2022/05/06 10:49:38;;;;;;;4.57;3.33;;;;;;;22.05;38.01;102542.81;5038148;28;20041;-73
2022/05/06 10:52:24;;;;;;;4.88;2.90;;;;;;;22.05;38.48;102529.56;5037739;28;20025;-72
2022/05/06 10:55:02;;;;;;;3.65;3.20;;;;;;;22.01;38.14;102525.53;5037258;28;20437;-73
2022/05/06 10:57:30;;;;;;;4.10;3.20;;;;;;;22.01;38.34;102526.34;5046154;28;20037;-73
2022/05/06 11:00:04;;;;;;;3.60;2.92;;;;;;;21.99;38.71;102524.84;5035041;28;20029;-73
2022/05/06 11:02:31;;;;;;;4.20;3.22;;;;;;;21.99;38.11;102523.03;5043764;28;20138;-73
2022/05/06 11:05:03;;;;;;;4.03;3.10;;;;;;;22.04;38.31;102538.47;5043355;28;20106;-73
2022/05/06 11:07:30;;;;;;;3.35;3.00;;;;;;;22.00;38.51;102530.00;5042259;28;20036;-73
2022/05/06 11:09:56;;;;;;;3.67;2.90;;;;;;;21.91;38.04;102514.19;5031856;28;20410;-73
2022/05/06 11:12:40;;;;;;;4.30;3.40;;;;;;;21.96;38.24;102528.63;5039043;28;20044;-73
2022/05/06 11:15:08;;;;;;;4.93;3.15;;;;;;;21.98;37.99;102526.66;5023177;28;20123;-74
2022/05/06 11:17:35;;;;;;;3.83;3.00;;;;;;;21.93;38.31;102514.84;5042521;28;20044;-72
2022/05/06 11:20:14;;;;;;;3.17;2.80;;;;;;;21.95;38.61;102526.13;5034330;28;20031;-72
2022/05/06 11:23:09;;;;;;;4.35;3.10;;;;;;;21.94;38.68;102527.97;5048024;28;20045;-73
2022/05/06 11:25:39;;;;;;;3.90;2.95;;;;;;;21.95;38.33;102526.97;5033346;28;20143;-72
2022/05/06 11:28:13;;;;;;;3.58;3.03;;;;;;;21.95;38.72;102518.19;5044290;28;20060;-72
2022/05/06 11:30:44;;;;;;;3.78;3.10;;;;;;;21.90;38.80;102513.34;5042226;28;20029;-72
2022/05/06 11:33:19;;;;;;;3.63;3.08;;;;;;;21.96;38.61;102517.19;5052400;28;20733;-73
2022/05/06 11:35:47;;;;;;;6.07;3.63;;;;;;;21.92;38.46;102511.38;5045862;28;20044;-73
2022/05/06 11:38:14;;;;;;;4.43;3.53;;;;;;;21.91;38.33;102499.09;5044594;28;20041;-73
2022/05/06 11:40:40;;;;;;;3.95;2.78;;;;;;;21.95;38.73;102505.75;5049453;28;20090;-73
2022/05/06 11:43:19;;;;;;;5.25;3.20;;;;;;;21.92;38.38;102506.06;5034156;28;20052;-73
2022/05/06 11:48:41;;;;;;;3.75;3.00;;;;;;;21.94;38.15;102505.91;5050308;28;20041;-73
2022/05/06 11:51:08;;;;;;;4.88;3.10;;;;;;;21.90;38.35;102502.75;5042750;28;20043;-72
2022/05/06 11:53:35;;;;;;;3.00;2.70;;;;;;;21.95;38.47;102510.22;5043667;28;20478;-73
2022/05/06 11:56:01;;;;;;;4.07;3.03;;;;;;;21.93;38.36;102499.78;5042906;28;20731;-73
2022/05/06 11:58:27;;;;;;;4.75;3.10;;;;;;;21.94;38.40;102496.13;5043860;28;20040;-73
2022/05/06 12:00:54;;;;;;;4.22;3.05;;;;;;;21.95;38.11;102496.97;5047214;28;20064;-73
2022/05/06 12:03:21;;;;;;;3.20;2.83;;;;;;;21.95;38.25;102492.50;5049061;28;20036;-73
2022/05/06 12:06:00;;;;;;;3.15;2.78;;;;;;;21.92;38.25;102498.09;5040414;28;20059;-73
2022/05/06 12:08:26;;;;;;;3.47;3.15;;;;;;;21.94;38.14;102492.66;5042901;28;20051;-72
2022/05/06 12:11:07;;;;;;;4.47;3.03;;;;;;;21.97;38.27;102498.47;5036563;28;20528;-67
2022/05/06 12:13:35;;;;;;;3.13;2.70;;;;;;;21.99;38.20;102490.34;5036718;28;20059;-71
2022/05/06 12:16:09;;;;;;;4.63;2.60;;;;;;;22.03;38.83;102486.41;5036681;28;20140;-69
2022/05/06 12:18:35;;;;;;;4.50;2.67;;;;;;;22.10;38.81;102484.84;5035823;28;20041;-69
2022/05/06 12:21:15;;;;;;;3.65;2.92;;;;;;;22.08;38.20;102476.19;5022065;28;20920;-69
2022/05/06 12:23:49;;;;;;;3.75;2.90;;;;;;;22.08;38.48;102480.66;5038975;28;20538;-69
2022/05/06 12:26:26;;;;;;;3.25;2.60;;;;;;;22.03;38.32;102486.41;5039652;28;20749;-69
2022/05/06 12:28:51;;;;;;;4.35;2.70;;;;;;;22.05;38.61;102481.81;5039490;28;20045;-69